sensor_id;sensor_type;location;lat;lon;timestamp;P1;durP1;ratioP1;P2;durP2;ratioP2
66012;SDS011;52783;50.502;8.190;2023-03-02T00:00:09;12.07;;;6.35;;
66012;SDS011;52783;50.502;8.190;2023-03-02T00:02:39;11.88;;;5.93;;
66012;SDS011;52783;50.502;8.190;2023-03-02T00:05:06;11.55;;;5.63;;
66012;SDS011;52783;50.502;8.190;2023-03-02T00:07:33;9.25;;;5.25;;
66012;SDS011;52783;50.502;8.190;2023-03-02T00:09:59;14.07;;;6.13;;
66012;SDS011;52783;50.502;8.190;2023-03-02T00:12:28;9.30;;;5.50;;
66012;SDS011;52783;50.502;8.190;2023-03-02T00:14:56;9.05;;;5.47;;
66012;SDS011;52783;50.502;8.190;2023-03-02T00:17:21;10.45;;;5.28;;
66012;SDS011;52783;50.502;8.190;2023-03-02T00:19:56;12.77;;;6.05;;
66012;SDS011;52783;50.502;8.190;2023-03-02T00:22:31;10.63;;;5.63;;
66012;SDS011;52783;50.502;8.190;2023-03-02T00:24:56;13.80;;;5.85;;
66012;SDS011;52783;50.502;8.190;2023-03-02T00:27:22;9.73;;;5.05;;
66012;SDS011;52783;50.502;8.190;2023-03-02T00:29:48;9.20;;;5.38;;
66012;SDS011;52783;50.502;8.190;2023-03-02T00:32:14;10.05;;;6.18;;
66012;SDS011;52783;50.502;8.190;2023-03-02T00:34:41;10.65;;;5.53;;
66012;SDS011;52783;50.502;8.190;2023-03-02T00:37:07;9.63;;;5.63;;
66012;SDS011;52783;50.502;8.190;2023-03-02T00:39:32;10.50;;;5.53;;
66012;SDS011;52783;50.502;8.190;2023-03-02T00:41:58;10.88;;;5.43;;
66012;SDS011;52783;50.502;8.190;2023-03-02T00:44:23;11.85;;;6.85;;
66012;SDS011;52783;50.502;8.190;2023-03-02T00:46:49;8.00;;;4.70;;
66012;SDS011;52783;50.502;8.190;2023-03-02T00:49:14;8.02;;;4.50;;
66012;SDS011;52783;50.502;8.190;2023-03-02T00:51:40;9.75;;;5.30;;
66012;SDS011;52783;50.502;8.190;2023-03-02T00:54:05;13.68;;;6.43;;
66012;SDS011;52783;50.502;8.190;2023-03-02T00:56:31;10.02;;;5.55;;
66012;SDS011;52783;50.502;8.190;2023-03-02T00:58:56;9.35;;;5.03;;
66012;SDS011;52783;50.502;8.190;2023-03-02T01:01:22;12.13;;;5.57;;
66012;SDS011;52783;50.502;8.190;2023-03-02T01:03:47;14.77;;;5.50;;
66012;SDS011;52783;50.502;8.190;2023-03-02T01:06:14;10.55;;;5.25;;
66012;SDS011;52783;50.502;8.190;2023-03-02T01:08:41;9.57;;;5.30;;
66012;SDS011;52783;50.502;8.190;2023-03-02T01:11:13;11.80;;;5.80;;
66012;SDS011;52783;50.502;8.190;2023-03-02T01:13:44;9.40;;;4.82;;
66012;SDS011;52783;50.502;8.190;2023-03-02T01:16:10;9.75;;;6.35;;
66012;SDS011;52783;50.502;8.190;2023-03-02T01:18:35;11.93;;;6.35;;
66012;SDS011;52783;50.502;8.190;2023-03-02T01:21:03;11.85;;;6.20;;
66012;SDS011;52783;50.502;8.190;2023-03-02T01:23:30;11.15;;;5.88;;
66012;SDS011;52783;50.502;8.190;2023-03-02T01:25:55;8.43;;;5.57;;
66012;SDS011;52783;50.502;8.190;2023-03-02T01:28:21;10.75;;;5.32;;
66012;SDS011;52783;50.502;8.190;2023-03-02T01:30:47;9.93;;;5.95;;
66012;SDS011;52783;50.502;8.190;2023-03-02T01:33:13;11.88;;;5.75;;
66012;SDS011;52783;50.502;8.190;2023-03-02T01:35:38;11.95;;;5.90;;
66012;SDS011;52783;50.502;8.190;2023-03-02T01:38:04;9.10;;;5.47;;
66012;SDS011;52783;50.502;8.190;2023-03-02T01:40:29;9.95;;;5.32;;
66012;SDS011;52783;50.502;8.190;2023-03-02T01:42:56;9.55;;;5.57;;
66012;SDS011;52783;50.502;8.190;2023-03-02T01:45:43;13.85;;;6.65;;
66012;SDS011;52783;50.502;8.190;2023-03-02T01:48:11;14.90;;;6.63;;
66012;SDS011;52783;50.502;8.190;2023-03-02T01:50:40;8.27;;;5.13;;
66012;SDS011;52783;50.502;8.190;2023-03-02T01:53:06;11.30;;;6.22;;
66012;SDS011;52783;50.502;8.190;2023-03-02T01:55:32;13.75;;;5.85;;
66012;SDS011;52783;50.502;8.190;2023-03-02T01:57:58;15.63;;;5.63;;
66012;SDS011;52783;50.502;8.190;2023-03-02T02:00:27;11.93;;;5.95;;
66012;SDS011;52783;50.502;8.190;2023-03-02T02:02:58;11.68;;;5.90;;
66012;SDS011;52783;50.502;8.190;2023-03-02T02:05:32;11.90;;;5.90;;
66012;SDS011;52783;50.502;8.190;2023-03-02T02:07:59;9.55;;;5.22;;
66012;SDS011;52783;50.502;8.190;2023-03-02T02:10:25;10.43;;;5.90;;
66012;SDS011;52783;50.502;8.190;2023-03-02T02:12:52;16.05;;;6.78;;
66012;SDS011;52783;50.502;8.190;2023-03-02T02:15:17;11.30;;;5.63;;
66012;SDS011;52783;50.502;8.190;2023-03-02T02:17:43;15.18;;;6.75;;
66012;SDS011;52783;50.502;8.190;2023-03-02T02:22:48;11.38;;;5.47;;
66012;SDS011;52783;50.502;8.190;2023-03-02T02:28:21;10.80;;;5.43;;
66012;SDS011;52783;50.502;8.190;2023-03-02T02:31:19;9.77;;;5.63;;
66012;SDS011;52783;50.502;8.190;2023-03-02T02:33:52;12.82;;;6.88;;
66012;SDS011;52783;50.502;8.190;2023-03-02T02:36:24;11.25;;;5.80;;
66012;SDS011;52783;50.502;8.190;2023-03-02T02:38:57;10.82;;;6.05;;
66012;SDS011;52783;50.502;8.190;2023-03-02T02:41:28;12.27;;;6.18;;
66012;SDS011;52783;50.502;8.190;2023-03-02T02:43:57;13.90;;;6.28;;
66012;SDS011;52783;50.502;8.190;2023-03-02T02:46:23;8.20;;;5.63;;
66012;SDS011;52783;50.502;8.190;2023-03-02T02:48:49;12.68;;;5.40;;
66012;SDS011;52783;50.502;8.190;2023-03-02T02:51:17;9.85;;;5.55;;
66012;SDS011;52783;50.502;8.190;2023-03-02T02:53:58;7.57;;;4.57;;
66012;SDS011;52783;50.502;8.190;2023-03-02T02:56:26;11.95;;;6.00;;
66012;SDS011;52783;50.502;8.190;2023-03-02T02:58:54;10.40;;;6.18;;
66012;SDS011;52783;50.502;8.190;2023-03-02T03:01:24;13.70;;;5.65;;
66012;SDS011;52783;50.502;8.190;2023-03-02T03:03:52;17.17;;;7.47;;
66012;SDS011;52783;50.502;8.190;2023-03-02T03:06:22;14.85;;;6.65;;
66012;SDS011;52783;50.502;8.190;2023-03-02T03:11:20;16.33;;;6.93;;
66012;SDS011;52783;50.502;8.190;2023-03-02T03:13:56;12.68;;;6.55;;
66012;SDS011;52783;50.502;8.190;2023-03-02T03:16:27;13.00;;;6.57;;
66012;SDS011;52783;50.502;8.190;2023-03-02T03:18:55;10.48;;;5.80;;
66012;SDS011;52783;50.502;8.190;2023-03-02T03:21:25;13.98;;;6.43;;
66012;SDS011;52783;50.502;8.190;2023-03-02T03:23:50;10.82;;;6.05;;
66012;SDS011;52783;50.502;8.190;2023-03-02T03:26:16;10.88;;;4.70;;
66012;SDS011;52783;50.502;8.190;2023-03-02T03:28:41;11.40;;;6.13;;
66012;SDS011;52783;50.502;8.190;2023-03-02T03:31:07;11.65;;;6.30;;
66012;SDS011;52783;50.502;8.190;2023-03-02T03:33:33;11.40;;;5.93;;
66012;SDS011;52783;50.502;8.190;2023-03-02T03:35:58;11.10;;;5.88;;
66012;SDS011;52783;50.502;8.190;2023-03-02T03:38:24;13.45;;;6.75;;
66012;SDS011;52783;50.502;8.190;2023-03-02T03:40:50;10.88;;;5.25;;
66012;SDS011;52783;50.502;8.190;2023-03-02T03:43:16;11.70;;;6.45;;
66012;SDS011;52783;50.502;8.190;2023-03-02T03:45:41;10.27;;;5.78;;
66012;SDS011;52783;50.502;8.190;2023-03-02T03:48:07;11.85;;;7.15;;
66012;SDS011;52783;50.502;8.190;2023-03-02T03:50:32;14.27;;;7.25;;
66012;SDS011;52783;50.502;8.190;2023-03-02T03:52:58;11.05;;;6.20;;
66012;SDS011;52783;50.502;8.190;2023-03-02T03:55:23;14.70;;;6.43;;
66012;SDS011;52783;50.502;8.190;2023-03-02T03:57:52;11.07;;;6.18;;
66012;SDS011;52783;50.502;8.190;2023-03-02T04:00:18;8.05;;;5.25;;
66012;SDS011;52783;50.502;8.190;2023-03-02T04:02:44;12.50;;;5.68;;
66012;SDS011;52783;50.502;8.190;2023-03-02T04:05:09;9.63;;;5.35;;
66012;SDS011;52783;50.502;8.190;2023-03-02T04:07:35;11.40;;;5.55;;
66012;SDS011;52783;50.502;8.190;2023-03-02T04:10:02;11.38;;;6.00;;
66012;SDS011;52783;50.502;8.190;2023-03-02T04:12:29;9.82;;;5.80;;
66012;SDS011;52783;50.502;8.190;2023-03-02T04:14:55;11.95;;;7.05;;
66012;SDS011;52783;50.502;8.190;2023-03-02T04:17:21;16.15;;;7.20;;
66012;SDS011;52783;50.502;8.190;2023-03-02T04:19:47;19.98;;;9.82;;
66012;SDS011;52783;50.502;8.190;2023-03-02T04:22:12;12.32;;;6.82;;
66012;SDS011;52783;50.502;8.190;2023-03-02T04:24:40;12.00;;;6.00;;
66012;SDS011;52783;50.502;8.190;2023-03-02T04:27:06;11.40;;;6.18;;
66012;SDS011;52783;50.502;8.190;2023-03-02T04:29:32;9.20;;;5.88;;
66012;SDS011;52783;50.502;8.190;2023-03-02T04:31:57;9.77;;;5.80;;
66012;SDS011;52783;50.502;8.190;2023-03-02T04:34:23;10.63;;;5.68;;
66012;SDS011;52783;50.502;8.190;2023-03-02T04:36:52;14.13;;;7.30;;
66012;SDS011;52783;50.502;8.190;2023-03-02T04:39:18;10.93;;;6.85;;
66012;SDS011;52783;50.502;8.190;2023-03-02T04:41:45;13.88;;;7.22;;
66012;SDS011;52783;50.502;8.190;2023-03-02T04:44:11;14.48;;;6.03;;
66012;SDS011;52783;50.502;8.190;2023-03-02T04:46:37;12.75;;;5.65;;
66012;SDS011;52783;50.502;8.190;2023-03-02T04:49:04;12.57;;;5.88;;
66012;SDS011;52783;50.502;8.190;2023-03-02T04:51:31;9.73;;;5.25;;
66012;SDS011;52783;50.502;8.190;2023-03-02T04:53:59;17.67;;;7.07;;
66012;SDS011;52783;50.502;8.190;2023-03-02T04:56:27;12.85;;;6.57;;
66012;SDS011;52783;50.502;8.190;2023-03-02T04:58:53;10.00;;;5.90;;
66012;SDS011;52783;50.502;8.190;2023-03-02T05:01:19;8.77;;;5.78;;
66012;SDS011;52783;50.502;8.190;2023-03-02T05:03:45;13.73;;;6.65;;
66012;SDS011;52783;50.502;8.190;2023-03-02T05:06:11;8.30;;;5.35;;
66012;SDS011;52783;50.502;8.190;2023-03-02T05:08:37;11.43;;;5.97;;
66012;SDS011;52783;50.502;8.190;2023-03-02T05:11:03;14.73;;;6.78;;
66012;SDS011;52783;50.502;8.190;2023-03-02T05:13:31;13.35;;;6.95;;
66012;SDS011;52783;50.502;8.190;2023-03-02T05:15:57;11.13;;;5.80;;
66012;SDS011;52783;50.502;8.190;2023-03-02T05:18:23;12.18;;;6.35;;
66012;SDS011;52783;50.502;8.190;2023-03-02T05:20:49;9.95;;;5.35;;
66012;SDS011;52783;50.502;8.190;2023-03-02T05:23:15;11.18;;;5.63;;
66012;SDS011;52783;50.502;8.190;2023-03-02T05:28:16;12.25;;;6.90;;
66012;SDS011;52783;50.502;8.190;2023-03-02T05:30:43;12.32;;;6.70;;
66012;SDS011;52783;50.502;8.190;2023-03-02T05:33:09;10.93;;;6.28;;
66012;SDS011;52783;50.502;8.190;2023-03-02T05:35:35;10.40;;;5.55;;
66012;SDS011;52783;50.502;8.190;2023-03-02T05:38:00;8.43;;;5.38;;
66012;SDS011;52783;50.502;8.190;2023-03-02T05:40:26;8.38;;;4.93;;
66012;SDS011;52783;50.502;8.190;2023-03-02T05:42:51;12.93;;;6.13;;
66012;SDS011;52783;50.502;8.190;2023-03-02T05:45:19;11.50;;;6.55;;
66012;SDS011;52783;50.502;8.190;2023-03-02T05:48:03;11.52;;;5.22;;
66012;SDS011;52783;50.502;8.190;2023-03-02T05:50:29;12.05;;;7.30;;
66012;SDS011;52783;50.502;8.190;2023-03-02T05:52:55;14.40;;;6.03;;
66012;SDS011;52783;50.502;8.190;2023-03-02T05:55:20;13.95;;;6.28;;
66012;SDS011;52783;50.502;8.190;2023-03-02T05:57:46;15.75;;;5.43;;
66012;SDS011;52783;50.502;8.190;2023-03-02T06:00:15;14.13;;;6.53;;
66012;SDS011;52783;50.502;8.190;2023-03-02T06:02:41;13.68;;;6.65;;
66012;SDS011;52783;50.502;8.190;2023-03-02T06:05:09;14.73;;;6.68;;
66012;SDS011;52783;50.502;8.190;2023-03-02T06:07:36;11.18;;;6.07;;
66012;SDS011;52783;50.502;8.190;2023-03-02T06:10:02;12.30;;;6.80;;
66012;SDS011;52783;50.502;8.190;2023-03-02T06:12:28;10.48;;;6.07;;
66012;SDS011;52783;50.502;8.190;2023-03-02T06:14:54;9.52;;;5.43;;
66012;SDS011;52783;50.502;8.190;2023-03-02T06:17:20;7.90;;;5.00;;
66012;SDS011;52783;50.502;8.190;2023-03-02T06:19:45;12.88;;;6.45;;
66012;SDS011;52783;50.502;8.190;2023-03-02T06:22:11;12.30;;;6.72;;
66012;SDS011;52783;50.502;8.190;2023-03-02T06:24:36;11.70;;;6.57;;
66012;SDS011;52783;50.502;8.190;2023-03-02T06:27:02;12.15;;;6.60;;
66012;SDS011;52783;50.502;8.190;2023-03-02T06:29:27;14.68;;;5.85;;
66012;SDS011;52783;50.502;8.190;2023-03-02T06:31:53;12.25;;;6.78;;
66012;SDS011;52783;50.502;8.190;2023-03-02T06:34:18;14.60;;;7.68;;
66012;SDS011;52783;50.502;8.190;2023-03-02T06:36:44;12.00;;;6.72;;
66012;SDS011;52783;50.502;8.190;2023-03-02T06:39:09;11.35;;;6.28;;
66012;SDS011;52783;50.502;8.190;2023-03-02T06:41:40;14.00;;;6.35;;
66012;SDS011;52783;50.502;8.190;2023-03-02T06:44:10;12.32;;;6.38;;
66012;SDS011;52783;50.502;8.190;2023-03-02T06:46:36;13.05;;;7.50;;
66012;SDS011;52783;50.502;8.190;2023-03-02T06:49:03;13.25;;;6.28;;
66012;SDS011;52783;50.502;8.190;2023-03-02T06:51:29;12.07;;;6.65;;
66012;SDS011;52783;50.502;8.190;2023-03-02T06:53:55;9.85;;;4.82;;
66012;SDS011;52783;50.502;8.190;2023-03-02T06:56:21;13.30;;;7.28;;
66012;SDS011;52783;50.502;8.190;2023-03-02T06:58:46;11.65;;;6.00;;
66012;SDS011;52783;50.502;8.190;2023-03-02T07:01:12;10.27;;;5.53;;
66012;SDS011;52783;50.502;8.190;2023-03-02T07:03:37;11.52;;;6.03;;
66012;SDS011;52783;50.502;8.190;2023-03-02T07:06:03;12.57;;;6.43;;
66012;SDS011;52783;50.502;8.190;2023-03-02T07:08:29;13.88;;;6.85;;
66012;SDS011;52783;50.502;8.190;2023-03-02T07:10:55;14.48;;;7.38;;
66012;SDS011;52783;50.502;8.190;2023-03-02T07:13:20;16.30;;;6.57;;
66012;SDS011;52783;50.502;8.190;2023-03-02T07:15:46;13.05;;;6.47;;
66012;SDS011;52783;50.502;8.190;2023-03-02T07:18:12;11.70;;;6.45;;
66012;SDS011;52783;50.502;8.190;2023-03-02T07:20:37;14.25;;;7.38;;
66012;SDS011;52783;50.502;8.190;2023-03-02T07:23:03;13.82;;;6.88;;
66012;SDS011;52783;50.502;8.190;2023-03-02T07:25:30;12.88;;;6.45;;
66012;SDS011;52783;50.502;8.190;2023-03-02T07:27:56;12.68;;;6.10;;
66012;SDS011;52783;50.502;8.190;2023-03-02T07:30:22;12.43;;;6.32;;
66012;SDS011;52783;50.502;8.190;2023-03-02T07:32:48;11.70;;;6.60;;
66012;SDS011;52783;50.502;8.190;2023-03-02T07:35:14;13.32;;;6.65;;
66012;SDS011;52783;50.502;8.190;2023-03-02T07:37:41;13.43;;;6.88;;
66012;SDS011;52783;50.502;8.190;2023-03-02T07:40:08;14.25;;;6.95;;
66012;SDS011;52783;50.502;8.190;2023-03-02T07:42:35;11.93;;;6.82;;
66012;SDS011;52783;50.502;8.190;2023-03-02T07:45:01;21.30;;;8.90;;
66012;SDS011;52783;50.502;8.190;2023-03-02T07:47:28;14.80;;;7.00;;
66012;SDS011;52783;50.502;8.190;2023-03-02T07:49:54;13.90;;;6.72;;
66012;SDS011;52783;50.502;8.190;2023-03-02T07:52:19;17.10;;;7.80;;
66012;SDS011;52783;50.502;8.190;2023-03-02T07:54:45;14.93;;;6.60;;
66012;SDS011;52783;50.502;8.190;2023-03-02T07:57:10;14.77;;;7.70;;
66012;SDS011;52783;50.502;8.190;2023-03-02T07:59:39;14.88;;;7.30;;
66012;SDS011;52783;50.502;8.190;2023-03-02T08:02:10;16.20;;;7.32;;
66012;SDS011;52783;50.502;8.190;2023-03-02T08:04:38;13.95;;;7.72;;
66012;SDS011;52783;50.502;8.190;2023-03-02T08:07:03;15.05;;;7.30;;
66012;SDS011;52783;50.502;8.190;2023-03-02T08:09:29;27.25;;;7.97;;
66012;SDS011;52783;50.502;8.190;2023-03-02T08:11:54;12.57;;;6.88;;
66012;SDS011;52783;50.502;8.190;2023-03-02T08:14:20;10.23;;;6.00;;
66012;SDS011;52783;50.502;8.190;2023-03-02T08:16:45;14.23;;;5.95;;
66012;SDS011;52783;50.502;8.190;2023-03-02T08:19:11;15.55;;;7.95;;
66012;SDS011;52783;50.502;8.190;2023-03-02T08:21:36;13.05;;;7.97;;
66012;SDS011;52783;50.502;8.190;2023-03-02T08:24:03;16.65;;;7.45;;
66012;SDS011;52783;50.502;8.190;2023-03-02T08:26:28;13.73;;;7.15;;
66012;SDS011;52783;50.502;8.190;2023-03-02T08:28:54;13.77;;;6.78;;
66012;SDS011;52783;50.502;8.190;2023-03-02T08:31:20;13.68;;;6.82;;
66012;SDS011;52783;50.502;8.190;2023-03-02T08:33:45;11.43;;;6.65;;
66012;SDS011;52783;50.502;8.190;2023-03-02T08:36:12;13.43;;;7.15;;
66012;SDS011;52783;50.502;8.190;2023-03-02T08:38:39;12.68;;;7.07;;
66012;SDS011;52783;50.502;8.190;2023-03-02T08:41:06;14.77;;;7.45;;
66012;SDS011;52783;50.502;8.190;2023-03-02T08:43:34;14.27;;;7.20;;
66012;SDS011;52783;50.502;8.190;2023-03-02T08:46:00;16.48;;;7.70;;
66012;SDS011;52783;50.502;8.190;2023-03-02T08:48:27;10.68;;;6.13;;
66012;SDS011;52783;50.502;8.190;2023-03-02T08:50:57;14.45;;;7.40;;
66012;SDS011;52783;50.502;8.190;2023-03-02T08:53:32;12.65;;;5.68;;
66012;SDS011;52783;50.502;8.190;2023-03-02T08:55:59;13.55;;;7.18;;
66012;SDS011;52783;50.502;8.190;2023-03-02T08:58:25;14.82;;;7.55;;
66012;SDS011;52783;50.502;8.190;2023-03-02T09:00:51;18.42;;;8.05;;
66012;SDS011;52783;50.502;8.190;2023-03-02T09:03:17;19.02;;;7.32;;
66012;SDS011;52783;50.502;8.190;2023-03-02T09:05:42;14.40;;;7.65;;
66012;SDS011;52783;50.502;8.190;2023-03-02T09:08:08;12.93;;;7.30;;
66012;SDS011;52783;50.502;8.190;2023-03-02T09:10:35;11.88;;;6.35;;
66012;SDS011;52783;50.502;8.190;2023-03-02T09:13:01;14.18;;;6.55;;
66012;SDS011;52783;50.502;8.190;2023-03-02T09:15:27;15.43;;;8.48;;
66012;SDS011;52783;50.502;8.190;2023-03-02T09:17:52;9.98;;;6.15;;
66012;SDS011;52783;50.502;8.190;2023-03-02T09:20:18;16.10;;;7.70;;
66012;SDS011;52783;50.502;8.190;2023-03-02T09:22:43;13.57;;;6.95;;
66012;SDS011;52783;50.502;8.190;2023-03-02T09:25:14;11.57;;;6.32;;
66012;SDS011;52783;50.502;8.190;2023-03-02T09:27:41;11.68;;;6.28;;
66012;SDS011;52783;50.502;8.190;2023-03-02T09:30:07;12.35;;;7.03;;
66012;SDS011;52783;50.502;8.190;2023-03-02T09:32:33;14.60;;;7.35;;
66012;SDS011;52783;50.502;8.190;2023-03-02T09:34:59;14.18;;;6.57;;
66012;SDS011;52783;50.502;8.190;2023-03-02T09:37:26;13.80;;;6.85;;
66012;SDS011;52783;50.502;8.190;2023-03-02T09:39:52;15.25;;;6.30;;
66012;SDS011;52783;50.502;8.190;2023-03-02T09:42:24;13.13;;;6.55;;
66012;SDS011;52783;50.502;8.190;2023-03-02T09:47:59;12.52;;;5.43;;
66012;SDS011;52783;50.502;8.190;2023-03-02T09:50:51;12.38;;;6.72;;
66012;SDS011;52783;50.502;8.190;2023-03-02T09:56:24;14.88;;;7.05;;
66012;SDS011;52783;50.502;8.190;2023-03-02T09:59:02;13.10;;;6.93;;
66012;SDS011;52783;50.502;8.190;2023-03-02T10:01:40;10.23;;;5.43;;
66012;SDS011;52783;50.502;8.190;2023-03-02T10:04:12;15.80;;;7.30;;
66012;SDS011;52783;50.502;8.190;2023-03-02T10:06:45;9.88;;;5.40;;
66012;SDS011;52783;50.502;8.190;2023-03-02T10:09:11;11.93;;;6.35;;
66012;SDS011;52783;50.502;8.190;2023-03-02T10:11:49;14.90;;;6.60;;
66012;SDS011;52783;50.502;8.190;2023-03-02T10:14:41;11.50;;;5.55;;
66012;SDS011;52783;50.502;8.190;2023-03-02T10:17:21;13.80;;;6.25;;
66012;SDS011;52783;50.502;8.190;2023-03-02T10:19:49;11.57;;;6.30;;
66012;SDS011;52783;50.502;8.190;2023-03-02T10:22:27;22.52;;;6.10;;
66012;SDS011;52783;50.502;8.190;2023-03-02T10:25:16;10.88;;;6.13;;
66012;SDS011;52783;50.502;8.190;2023-03-02T10:27:50;10.88;;;6.05;;
66012;SDS011;52783;50.502;8.190;2023-03-02T10:30:26;16.25;;;6.38;;
66012;SDS011;52783;50.502;8.190;2023-03-02T10:33:01;12.52;;;6.40;;
66012;SDS011;52783;50.502;8.190;2023-03-02T10:35:32;16.50;;;6.53;;
66012;SDS011;52783;50.502;8.190;2023-03-02T10:38:03;11.98;;;5.57;;
66012;SDS011;52783;50.502;8.190;2023-03-02T10:43:41;13.43;;;6.28;;
66012;SDS011;52783;50.502;8.190;2023-03-02T10:46:13;9.02;;;5.70;;
66012;SDS011;52783;50.502;8.190;2023-03-02T10:48:52;11.35;;;6.53;;
66012;SDS011;52783;50.502;8.190;2023-03-02T10:51:27;12.48;;;5.90;;
66012;SDS011;52783;50.502;8.190;2023-03-02T10:56:34;13.93;;;5.88;;
66012;SDS011;52783;50.502;8.190;2023-03-02T10:59:10;10.07;;;5.72;;
66012;SDS011;52783;50.502;8.190;2023-03-02T11:01:58;8.00;;;4.97;;
66012;SDS011;52783;50.502;8.190;2023-03-02T11:04:48;10.25;;;5.05;;
66012;SDS011;52783;50.502;8.190;2023-03-02T11:07:19;20.27;;;6.35;;
66012;SDS011;52783;50.502;8.190;2023-03-02T11:10:00;12.30;;;5.60;;
66012;SDS011;52783;50.502;8.190;2023-03-02T11:12:47;11.15;;;5.72;;
66012;SDS011;52783;50.502;8.190;2023-03-02T11:17:49;16.50;;;6.35;;
66012;SDS011;52783;50.502;8.190;2023-03-02T11:20:29;10.82;;;5.65;;
66012;SDS011;52783;50.502;8.190;2023-03-02T11:23:04;13.48;;;6.28;;
66012;SDS011;52783;50.502;8.190;2023-03-02T11:25:49;10.00;;;5.45;;
66012;SDS011;52783;50.502;8.190;2023-03-02T11:31:10;11.85;;;5.63;;
66012;SDS011;52783;50.502;8.190;2023-03-02T11:33:56;14.55;;;5.88;;
66012;SDS011;52783;50.502;8.190;2023-03-02T11:42:14;11.25;;;5.70;;
66012;SDS011;52783;50.502;8.190;2023-03-02T11:44:47;12.82;;;5.47;;
66012;SDS011;52783;50.502;8.190;2023-03-02T11:47:13;16.40;;;5.55;;
66012;SDS011;52783;50.502;8.190;2023-03-02T11:49:41;10.80;;;4.75;;
66012;SDS011;52783;50.502;8.190;2023-03-02T11:52:20;11.77;;;5.50;;
66012;SDS011;52783;50.502;8.190;2023-03-02T11:54:51;11.82;;;4.80;;
66012;SDS011;52783;50.502;8.190;2023-03-02T11:57:24;18.58;;;5.18;;
66012;SDS011;52783;50.502;8.190;2023-03-02T12:02:20;12.18;;;5.40;;
66012;SDS011;52783;50.502;8.190;2023-03-02T12:04:46;8.25;;;4.90;;
66012;SDS011;52783;50.502;8.190;2023-03-02T12:14:50;15.05;;;5.07;;
66012;SDS011;52783;50.502;8.190;2023-03-02T12:19:52;12.40;;;4.47;;
66012;SDS011;52783;50.502;8.190;2023-03-02T12:22:27;9.93;;;4.95;;
66012;SDS011;52783;50.502;8.190;2023-03-02T12:25:37;11.07;;;4.63;;
66012;SDS011;52783;50.502;8.190;2023-03-02T12:27:43;10.63;;;4.88;;
66012;SDS011;52783;50.502;8.190;2023-03-02T12:33:01;8.60;;;4.00;;
66012;SDS011;52783;50.502;8.190;2023-03-02T12:35:31;11.10;;;4.20;;
66012;SDS011;52783;50.502;8.190;2023-03-02T12:40:39;11.00;;;4.55;;
66012;SDS011;52783;50.502;8.190;2023-03-02T12:43:29;12.23;;;4.70;;
66012;SDS011;52783;50.502;8.190;2023-03-02T12:48:46;10.70;;;4.75;;
66012;SDS011;52783;50.502;8.190;2023-03-02T12:51:22;9.50;;;3.80;;
66012;SDS011;52783;50.502;8.190;2023-03-02T12:54:00;10.18;;;4.75;;
66012;SDS011;52783;50.502;8.190;2023-03-02T12:57:02;9.05;;;4.30;;
66012;SDS011;52783;50.502;8.190;2023-03-02T12:59:38;9.25;;;4.70;;
66012;SDS011;52783;50.502;8.190;2023-03-02T13:02:04;10.60;;;5.32;;
66012;SDS011;52783;50.502;8.190;2023-03-02T13:07:01;10.88;;;4.95;;
66012;SDS011;52783;50.502;8.190;2023-03-02T13:09:26;7.90;;;4.72;;
66012;SDS011;52783;50.502;8.190;2023-03-02T13:11:53;9.27;;;4.22;;
66012;SDS011;52783;50.502;8.190;2023-03-02T13:14:20;8.02;;;4.75;;
66012;SDS011;52783;50.502;8.190;2023-03-02T13:16:56;7.25;;;3.95;;
66012;SDS011;52783;50.502;8.190;2023-03-02T13:19:24;8.95;;;3.88;;
66012;SDS011;52783;50.502;8.190;2023-03-02T13:21:51;10.65;;;4.35;;
66012;SDS011;52783;50.502;8.190;2023-03-02T13:27:14;6.57;;;3.85;;
66012;SDS011;52783;50.502;8.190;2023-03-02T13:29:45;12.15;;;4.90;;
66012;SDS011;52783;50.502;8.190;2023-03-02T13:34:59;8.10;;;4.80;;
66012;SDS011;52783;50.502;8.190;2023-03-02T13:39:57;9.68;;;4.38;;
66012;SDS011;52783;50.502;8.190;2023-03-02T13:42:27;12.27;;;4.60;;
66012;SDS011;52783;50.502;8.190;2023-03-02T13:45:07;7.97;;;3.95;;
66012;SDS011;52783;50.502;8.190;2023-03-02T13:47:46;10.93;;;4.60;;
66012;SDS011;52783;50.502;8.190;2023-03-02T13:50:19;10.15;;;4.90;;
66012;SDS011;52783;50.502;8.190;2023-03-02T13:53:00;14.02;;;4.55;;
66012;SDS011;52783;50.502;8.190;2023-03-02T13:55:29;8.57;;;4.65;;
66012;SDS011;52783;50.502;8.190;2023-03-02T13:57:55;12.80;;;5.15;;
66012;SDS011;52783;50.502;8.190;2023-03-02T14:02:52;10.33;;;4.80;;
66012;SDS011;52783;50.502;8.190;2023-03-02T14:05:24;13.35;;;4.78;;
66012;SDS011;52783;50.502;8.190;2023-03-02T14:07:56;13.32;;;4.53;;
66012;SDS011;52783;50.502;8.190;2023-03-02T14:10:26;7.88;;;4.38;;
66012;SDS011;52783;50.502;8.190;2023-03-02T14:12:57;11.50;;;4.78;;
66012;SDS011;52783;50.502;8.190;2023-03-02T14:15:28;11.10;;;5.72;;
66012;SDS011;52783;50.502;8.190;2023-03-02T14:17:53;10.60;;;5.32;;
66012;SDS011;52783;50.502;8.190;2023-03-02T14:20:19;10.48;;;5.50;;
66012;SDS011;52783;50.502;8.190;2023-03-02T14:22:45;8.93;;;4.45;;
66012;SDS011;52783;50.502;8.190;2023-03-02T14:25:12;8.88;;;5.03;;
66012;SDS011;52783;50.502;8.190;2023-03-02T14:27:37;7.60;;;4.00;;
66012;SDS011;52783;50.502;8.190;2023-03-02T14:30:17;12.90;;;5.60;;
66012;SDS011;52783;50.502;8.190;2023-03-02T14:32:45;10.13;;;5.13;;
66012;SDS011;52783;50.502;8.190;2023-03-02T14:35:11;7.82;;;4.50;;
66012;SDS011;52783;50.502;8.190;2023-03-02T14:37:47;9.18;;;5.05;;
66012;SDS011;52783;50.502;8.190;2023-03-02T14:40:15;10.30;;;5.85;;
66012;SDS011;52783;50.502;8.190;2023-03-02T14:42:42;10.60;;;5.35;;
66012;SDS011;52783;50.502;8.190;2023-03-02T14:45:08;8.90;;;4.88;;
66012;SDS011;52783;50.502;8.190;2023-03-02T14:47:35;8.77;;;5.03;;
66012;SDS011;52783;50.502;8.190;2023-03-02T14:50:00;10.75;;;4.88;;
66012;SDS011;52783;50.502;8.190;2023-03-02T14:52:32;8.52;;;5.03;;
66012;SDS011;52783;50.502;8.190;2023-03-02T14:55:04;9.70;;;5.10;;
66012;SDS011;52783;50.502;8.190;2023-03-02T14:57:36;7.45;;;5.00;;
66012;SDS011;52783;50.502;8.190;2023-03-02T15:00:02;9.15;;;4.90;;
66012;SDS011;52783;50.502;8.190;2023-03-02T15:02:29;10.63;;;4.53;;
66012;SDS011;52783;50.502;8.190;2023-03-02T15:04:55;13.38;;;4.78;;
66012;SDS011;52783;50.502;8.190;2023-03-02T15:07:21;8.13;;;4.50;;
66012;SDS011;52783;50.502;8.190;2023-03-02T15:09:47;14.70;;;4.55;;
66012;SDS011;52783;50.502;8.190;2023-03-02T15:12:13;8.00;;;4.53;;
66012;SDS011;52783;50.502;8.190;2023-03-02T15:14:38;7.47;;;4.45;;
66012;SDS011;52783;50.502;8.190;2023-03-02T15:17:04;7.97;;;3.83;;
66012;SDS011;52783;50.502;8.190;2023-03-02T15:19:30;6.53;;;3.72;;
66012;SDS011;52783;50.502;8.190;2023-03-02T15:21:55;5.32;;;3.83;;
66012;SDS011;52783;50.502;8.190;2023-03-02T15:24:21;6.25;;;3.53;;
66012;SDS011;52783;50.502;8.190;2023-03-02T15:26:50;7.40;;;3.85;;
66012;SDS011;52783;50.502;8.190;2023-03-02T15:29:17;6.80;;;3.63;;
66012;SDS011;52783;50.502;8.190;2023-03-02T15:31:43;7.07;;;3.30;;
66012;SDS011;52783;50.502;8.190;2023-03-02T15:34:09;6.55;;;3.28;;
66012;SDS011;52783;50.502;8.190;2023-03-02T15:36:35;4.07;;;3.08;;
66012;SDS011;52783;50.502;8.190;2023-03-02T15:39:01;4.55;;;3.50;;
66012;SDS011;52783;50.502;8.190;2023-03-02T15:44:02;9.48;;;3.47;;
66012;SDS011;52783;50.502;8.190;2023-03-02T15:46:27;6.40;;;3.80;;
66012;SDS011;52783;50.502;8.190;2023-03-02T15:48:53;6.18;;;3.50;;
66012;SDS011;52783;50.502;8.190;2023-03-02T15:51:18;4.13;;;2.97;;
66012;SDS011;52783;50.502;8.190;2023-03-02T15:53:44;4.97;;;2.88;;
66012;SDS011;52783;50.502;8.190;2023-03-02T15:56:12;5.38;;;3.22;;